Weather at Boundary Bay Airport

Public forecast

Using degrees Celsius for public forecast. Weather courtesy of forecast.io.

Closest aviation weather report (METAR) to Boundary Bay Airport

Report is more than 6 hours old.

Closest report is Vancouver International Airport, 9.9 nm (18.3 km) NW.

2022/11/14 15:00 (retrieved 2 years ago)

CYVR 141500Z 11002KT 20SM MIFG FEW180 M00/M00 A3043 RMK AC1 SLP307

Closest aviation forecast (TAF) to Boundary Bay Airport

Forecast is more than 12 hours old.

Closest forecast is Vancouver International Airport, 9.9 nm (18.3 km) NW.

2023/02/22 18:42 (retrieved 1 year ago)

TAF TAF CYVR 221740Z 2218/2324 08008KT P6SM SCT070 BKN200 TEMPO 2218/2305 3SM -SN BKN060 BECMG 2301/2303 06010G20KT FM230500 08015G25KT P6SM BKN070 TEMPO 2305/2309 5SM -SN BKN060 FM230900 08015G25KT P6SM BKN080 FM232000 08012G22KT P6SM SCT080 RMK NXT FCST BY 222100Z